City by the Sea, Texas
Current Conditions -  °F | °C
As of 5:35 AM on Friday 24 Oct 2014 (Local Time) from KTFP Reporting Station
Clear Clear  
Wind Chill: 65°   Ceiling: Unl
Heat Index: 65°   Visibility: 10mi
Dew Point: 63°   Wind: 5mph
Humidity: 94%   Direction: 10°N
Pressure: 30.09"   Gusts: NA
Location:  27.9399°N, 97.1805°W
Report Text: KTFP 241035Z AUTO 01004KT 10SM CLR 18/17 A3009 RMK AO2 T01810171
Loading
Personal Weather Stations






























Interactive Weather Map
Tropical Storm Tracking
New forecast layout! Learn more

10-Day Weather Forecast

Advertisements
Track Severe Weather on mobile